Time;durP1;ratioP1;P1;durP2;ratioP2;P2;SDS_P1;SDS_P2;PMS_P1;PMS_P2;Temp;Humidity;BMP_temperature;BMP_pressure;BME280_temperature;BME280_humidity;BME280_pressure;Samples;Min_cycle;Max_cycle;Signal;HPM_P1;HPM_P2
2022/11/05 00:18:12;;;;;;;;;;;;;;;18.46;67.97;100348.51;2369712;75;22277;-76
2022/11/05 00:27:53;;;;;;;;;;;;;;;18.44;67.87;100355.37;2369478;75;22301;-76
2022/11/05 00:30:56;;;;;;;;;;;;;;;18.45;67.93;100361.08;2369184;75;51490;-76
2022/11/05 00:33:58;;;;;;;;;;;;;;;18.44;67.92;100358.06;2368723;75;52313;-76
2022/11/05 00:36:59;;;;;;;;;;;;;;;18.44;67.84;100358.06;2369295;75;50435;-76
2022/11/05 00:40:01;;;;;;;;;;;;;;;18.43;67.89;100365.79;2341330;75;49551;-76
2022/11/05 00:46:22;;;;;;;;;;;;;;;18.44;67.87;100364.76;2352193;74;22287;-76
2022/11/05 00:49:30;;;;;;;;;;;;;;;18.43;67.89;100369.81;2392259;74;50375;-75
2022/11/05 00:55:51;;;;;;;;;;;;;;;18.42;67.91;100369.50;2408964;74;24451;-75
2022/11/05 00:58:52;;;;;;;;;;;;;;;18.42;67.98;100376.20;2408636;73;50727;-76
2022/11/05 01:01:57;;;;;;;;;;;;;;;18.42;67.95;100382.04;2411270;73;50372;-76
2022/11/05 01:04:58;;;;;;;;;;;;;;;18.42;67.92;100386.91;2366729;73;49595;-76
2022/11/05 01:08:00;;;;;;;;;;;;;;;18.40;67.95;100390.28;2383848;73;50582;-74
2022/11/05 01:11:03;;;;;;;;;;;;;;;18.40;67.89;100390.28;2414265;73;50704;-74
2022/11/05 01:14:09;;;;;;;;;;;;;;;18.40;67.94;100396.16;2343955;73;51832;-74
2022/11/05 01:17:11;;;;;;;;;;;;;;;18.38;67.98;100395.51;2369635;75;50425;-74
2022/11/05 01:20:13;;;;;;;;;;;;;;;18.37;67.96;100399.19;2369594;75;50766;-74
2022/11/05 01:23:14;;;;;;;;;;;;;;;18.38;67.95;100411.06;2369469;74;51528;-74
2022/11/05 01:26:16;;;;;;;;;;;;;;;18.38;67.96;100405.70;2369434;75;51513;-74
2022/11/05 01:29:17;;;;;;;;;;;;;;;18.38;67.94;100404.37;2369724;74;51499;-74
2022/11/05 01:32:19;;;;;;;;;;;;;;;18.37;67.96;100402.72;2368960;75;51512;-74
2022/11/05 01:35:20;;;;;;;;;;;;;;;18.37;67.92;100402.72;2369426;75;50388;-74
2022/11/05 01:38:22;;;;;;;;;;;;;;;18.37;67.97;100404.06;2369592;75;50479;-74
2022/11/05 01:41:24;;;;;;;;;;;;;;;18.37;67.99;100408.56;2340837;73;51298;-74
2022/11/05 01:44:45;;;;;;;;;;;;;;;18.37;67.98;100410.75;2377631;73;50378;-74
2022/11/05 01:47:55;;;;;;;;;;;;;;;18.36;67.98;100413.09;2370022;75;22468;-74
2022/11/05 01:50:58;;;;;;;;;;;;;;;18.37;67.97;100416.11;2369406;75;50343;-75
2022/11/05 01:54:01;;;;;;;;;;;;;;;18.36;67.98;100410.41;2340122;75;49630;-75
2022/11/05 01:57:03;;;;;;;;;;;;;;;18.35;68.04;100410.11;2369738;75;51550;-75
2022/11/05 02:00:05;;;;;;;;;;;;;;;18.35;68.04;100415.46;2369667;75;50933;-75
2022/11/05 02:03:07;;;;;;;;;;;;;;;18.34;68.11;100420.51;2342099;75;50109;-74
2022/11/05 02:06:08;;;;;;;;;;;;;;;18.33;68.15;100420.69;2342064;75;49520;-74
2022/11/05 02:09:11;;;;;;;;;;;;;;;18.33;68.20;100425.52;2389957;74;50294;-74
2022/11/05 02:12:13;;;;;;;;;;;;;;;18.32;68.28;100437.27;2392720;73;50875;-74
2022/11/05 02:15:16;;;;;;;;;;;;;;;18.32;68.09;100438.61;2337287;74;50261;-74
2022/11/05 02:18:19;;;;;;;;;;;;;;;18.33;68.20;100444.80;2326680;75;51659;-75
2022/11/05 02:21:25;;;;;;;;;;;;;;;18.34;68.16;100448.63;2326638;75;51524;-74
2022/11/05 02:24:28;;;;;;;;;;;;;;;18.33;68.14;100449.63;2325837;75;50520;-73
2022/11/05 02:27:34;;;;;;;;;;;;;;;18.33;68.12;100459.01;2326585;75;50404;-74
2022/11/05 02:30:37;;;;;;;;;;;;;;;18.33;68.04;100459.01;2299423;75;49841;-74
2022/11/05 02:33:55;;;;;;;;;;;;;;;18.34;68.08;100464.70;2327876;75;50226;-74
2022/11/05 02:36:54;;;;;;;;;;;;;;;18.34;68.04;100462.03;2326125;75;22432;-75
2022/11/05 02:39:58;;;;;;;;;;;;;;;18.33;67.94;100465.70;2329231;75;51629;-75
2022/11/05 02:43:14;;;;;;;;;;;;;;;18.34;68.00;100467.87;2312408;75;51068;-74
2022/11/05 02:46:15;;;;;;;;;;;;;;;18.33;67.97;100468.38;2366525;75;21774;-75
2022/11/05 02:49:21;;;;;;;;;;;;;;;18.32;67.97;100474.77;2367577;75;50896;-75
2022/11/05 02:52:25;;;;;;;;;;;;;;;18.32;67.98;100469.41;2362199;75;51686;-74
2022/11/05 02:55:34;;;;;;;;;;;;;;;18.31;68.00;100474.94;2344598;75;51066;-74
2022/11/05 02:58:35;;;;;;;;;;;;;;;18.31;67.97;100476.28;2369647;75;50275;-74
2022/11/05 03:01:37;;;;;;;;;;;;;;;18.29;67.92;100489.88;2369785;75;50706;-74
2022/11/05 03:04:39;;;;;;;;;;;;;;;18.30;67.99;100490.70;2369380;75;51535;-75
2022/11/05 03:07:42;;;;;;;;;;;;;;;18.30;67.99;100500.91;2350519;73;51064;-74
2022/11/05 03:10:45;;;;;;;;;;;;;;;18.30;67.97;100494.20;2413598;73;51606;-75
2022/11/05 03:13:59;;;;;;;;;;;;;;;18.30;67.97;100504.92;2346268;73;51606;-75
2022/11/05 03:17:08;;;;;;;;;;;;;;;18.30;68.01;100500.91;2326846;76;50805;-75
2022/11/05 03:20:21;;;;;;;;;;;;;;;18.30;68.02;100509.45;2300039;76;51000;-75
2022/11/05 03:23:27;;;;;;;;;;;;;;;18.29;68.08;100518.00;2326756;76;51641;-75
2022/11/05 03:26:30;;;;;;;;;;;;;;;18.29;68.09;100518.00;2327089;76;50397;-75
2022/11/05 03:29:33;;;;;;;;;;;;;;;18.28;68.03;100517.66;2326964;76;51548;-75
2022/11/05 03:32:35;;;;;;;;;;;;;;;18.27;68.06;100527.55;2300241;76;49741;-75
2022/11/05 03:35:38;;;;;;;;;;;;;;;18.27;67.96;100521.36;2326725;76;51557;-75
2022/11/05 03:38:39;;;;;;;;;;;;;;;18.28;67.99;100527.03;2326929;76;51684;-76
2022/11/05 03:41:42;;;;;;;;;;;;;;;18.27;67.97;100534.75;2326474;76;50419;-75
2022/11/05 03:44:50;;;;;;;;;;;;;;;18.27;68.00;100537.44;2379099;73;51081;-76
2022/11/05 03:47:52;;;;;;;;;;;;;;;18.26;67.97;100536.61;2356280;75;51570;-74
2022/11/05 03:50:55;;;;;;;;;;;;;;;18.27;67.97;100543.62;2355964;75;51527;-75
2022/11/05 03:53:57;;;;;;;;;;;;;;;18.26;67.94;100544.64;2355688;75;50340;-75
2022/11/05 03:57:00;;;;;;;;;;;;;;;18.27;67.96;100553.51;2334761;75;52683;-76
2022/11/05 04:00:02;;;;;;;;;;;;;;;18.25;67.94;100556.35;2357114;75;50442;-75
2022/11/05 04:03:04;;;;;;;;;;;;;;;18.23;67.98;100554.36;2331858;75;51529;-75
2022/11/05 04:26:03;;;;;;;;;;;;;;;18.36;67.29;100577.83;2415641;73;23464;-76
2022/11/05 04:32:24;;;;;;;;;;;;;;;18.36;68.01;100593.08;2359915;74;22334;-75
2022/11/05 04:35:26;;;;;;;;;;;;;;;18.41;67.91;100604.91;2367069;73;49625;-75
2022/11/05 04:38:27;;;;;;;;;;;;;;;18.47;67.93;100595.30;2389804;73;50690;-75
2022/11/05 04:41:29;;;;;;;;;;;;;;;18.56;67.79;100600.08;2409045;73;50340;-75
2022/11/05 04:44:31;;;;;;;;;;;;;;;18.64;67.59;100611.53;2383806;73;50379;-75
2022/11/05 04:47:32;;;;;;;;;;;;;;;18.69;67.45;100604.29;2415870;73;50728;-76
2022/11/05 04:50:34;;;;;;;;;;;;;;;18.71;67.35;100606.28;2389121;73;51504;-75
2022/11/05 04:53:35;;;;;;;;;;;;;;;18.71;67.33;100604.94;2415181;73;51537;-75
2022/11/05 04:56:37;;;;;;;;;;;;;;;18.69;67.36;100606.97;2389518;73;51536;-75
2022/11/05 04:59:38;;;;;;;;;;;;;;;18.67;67.39;100606.31;2402900;73;51062;-75
2022/11/05 05:02:40;;;;;;;;;;;;;;;18.66;67.36;100601.98;2416095;73;50221;-75
2022/11/05 05:05:42;;;;;;;;;;;;;;;18.64;67.37;100605.34;2415638;73;50355;-75
2022/11/05 05:08:45;;;;;;;;;;;;;;;18.60;67.42;100606.23;2415929;73;50319;-75
2022/11/05 05:11:46;;;;;;;;;;;;;;;18.59;67.52;100610.42;2375316;73;51322;-75
2022/11/05 05:14:48;;;;;;;;;;;;;;;18.62;67.55;100612.73;2376110;73;50486;-75
2022/11/05 05:17:50;;;;;;;;;;;;;;;18.65;67.46;100607.00;2387483;74;50201;-74
2022/11/05 05:24:14;;;;;;;;;;;;;;;18.66;67.41;100602.81;2387422;74;24488;-75
2022/11/05 05:27:15;;;;;;;;;;;;;;;18.66;67.39;100611.36;2364737;74;51521;-75
2022/11/05 05:30:17;;;;;;;;;;;;;;;18.64;67.40;100617.41;2387302;74;51416;-75
2022/11/05 05:33:18;;;;;;;;;;;;;;;18.61;67.44;100622.63;2364055;74;50637;-75
2022/11/05 05:36:20;;;;;;;;;;;;;;;18.59;67.48;100621.15;2387416;74;51536;-75
2022/11/05 05:39:22;;;;;;;;;;;;;;;18.53;67.61;100629.94;2391735;74;51858;-75
2022/11/05 05:42:23;;;;;;;;;;;;;;;18.50;67.68;100641.33;2395844;73;50656;-75
2022/11/05 05:45:25;;;;;;;;;;;;;;;18.50;67.72;100646.69;2368559;74;51399;-75
2022/11/05 05:48:27;;;;;;;;;;;;;;;18.56;67.69;100651.82;2387392;74;51426;-75
2022/11/05 05:51:28;;;;;;;;;;;;;;;18.63;67.55;100659.98;2392202;74;50947;-76
2022/11/05 05:54:30;;;;;;;;;;;;;;;18.66;67.45;100667.64;2364366;74;50414;-76
2022/11/05 05:57:31;;;;;;;;;;;;;;;18.66;67.38;100665.79;2387023;74;51528;-76
2022/11/05 06:00:33;;;;;;;;;;;;;;;18.65;67.36;100663.28;2387303;74;51584;-75
2022/11/05 06:03:34;;;;;;;;;;;;;;;18.64;67.35;100675.03;2335610;74;51344;-75
2022/11/05 06:06:36;;;;;;;;;;;;;;;18.62;67.43;100683.75;2364095;74;50426;-75
2022/11/05 06:09:38;;;;;;;;;;;;;;;18.60;67.44;100681.75;2364077;73;50731;-75
2022/11/05 06:12:39;;;;;;;;;;;;;;;18.54;67.61;100684.66;2395930;73;50304;-74
2022/11/05 06:15:41;;;;;;;;;;;;;;;18.49;67.75;100696.43;2369904;74;50970;-75
2022/11/05 06:18:42;;;;;;;;;;;;;;;18.50;67.77;100684.20;2377916;75;51527;-76
2022/11/05 06:21:44;;;;;;;;;;;;;;;18.57;67.71;100700.88;2377942;75;51107;-74
2022/11/05 06:24:45;;;;;;;;;;;;;;;18.62;67.60;100698.49;2377719;75;50368;-74
2022/11/05 06:27:47;;;;;;;;;;;;;;;18.65;67.52;100714.20;2325434;75;53734;-74
2022/11/05 06:30:50;;;;;;;;;;;;;;;18.65;67.52;100716.88;2351789;75;50309;-74
2022/11/05 06:33:52;;;;;;;;;;;;;;;18.63;67.52;100725.13;2376112;75;51587;-75
2022/11/05 06:36:54;;;;;;;;;;;;;;;18.61;67.57;100729.00;2377829;75;50477;-74
2022/11/05 06:39:56;;;;;;;;;;;;;;;18.60;67.60;100741.57;2325409;75;51132;-75
2022/11/05 06:42:57;;;;;;;;;;;;;;;18.57;67.63;100739.73;2395913;73;51522;-74
2022/11/05 06:46:00;;;;;;;;;;;;;;;18.52;67.77;100748.83;2402877;73;49918;-75
2022/11/05 06:49:02;;;;;;;;;;;;;;;18.49;67.84;100744.66;2403648;72;51564;-75
2022/11/05 06:52:03;;;;;;;;;;;;;;;18.50;67.84;100748.52;2386571;73;50120;-75
2022/11/05 06:55:05;;;;;;;;;;;;;;;18.54;67.82;100750.83;2353986;74;51458;-75
2022/11/05 06:58:06;;;;;;;;;;;;;;;18.59;67.75;100755.96;2369314;73;50665;-75
2022/11/05 07:01:08;;;;;;;;;;;;;;;18.63;67.69;100760.48;2355073;74;50803;-75
2022/11/05 07:04:11;;;;;;;;;;;;;;;18.65;67.52;100761.96;2379924;73;49623;-75
2022/11/05 07:07:13;;;;;;;;;;;;;;;18.66;67.60;100777.53;2393891;73;51532;-75
2022/11/05 07:10:15;;;;;;;;;;;;;;;18.63;67.55;100781.92;2389189;73;51478;-74
2022/11/05 07:13:17;;;;;;;;;;;;;;;18.61;67.54;100781.25;2389104;73;51511;-75
2022/11/05 07:16:18;;;;;;;;;;;;;;;18.59;67.58;100779.25;2388894;73;50871;-76
2022/11/05 07:19:20;;;;;;;;;;;;;;;18.53;67.77;100781.33;2408603;72;51442;-76
2022/11/05 07:22:21;;;;;;;;;;;;;;;18.48;67.88;100789.38;2393829;73;51615;-75
2022/11/05 07:25:23;;;;;;;;;;;;;;;18.49;67.92;100792.89;2385460;74;51531;-75
2022/11/05 07:28:25;;;;;;;;;;;;;;;18.57;67.91;100794.16;2370726;72;51397;-75
2022/11/05 07:31:26;;;;;;;;;;;;;;;18.62;67.80;100797.65;2412313;72;51507;-75
2022/11/05 07:34:28;;;;;;;;;;;;;;;18.64;67.73;100806.35;2410630;72;50376;-75
2022/11/05 07:37:29;;;;;;;;;;;;;;;18.65;67.69;100801.30;2413592;73;50487;-75
2022/11/05 07:40:31;;;;;;;;;;;;;;;18.64;67.69;100815.22;2388832;73;51655;-75
2022/11/05 07:43:32;;;;;;;;;;;;;;;18.64;67.70;100809.03;2428369;73;51490;-74
2022/11/05 07:46:34;;;;;;;;;;;;;;;18.62;67.71;100808.38;2389054;73;52142;-75
2022/11/05 07:49:36;;;;;;;;;;;;;;;18.60;67.77;100811.25;2400321;73;51471;-75
2022/11/05 07:52:37;;;;;;;;;;;;;;;18.57;67.82;100810.75;2387871;73;50972;-75
2022/11/05 07:55:41;;;;;;;;;;;;;;;18.54;67.90;100802.56;2424505;73;50375;-72
2022/11/05 07:58:42;;;;;;;;;;;;;;;18.55;67.98;100812.29;2423951;73;51555;-72
2022/11/05 08:01:44;;;;;;;;;;;;;;;18.62;67.92;100809.71;2424605;73;50673;-72
2022/11/05 08:04:46;;;;;;;;;;;;;;;18.68;67.73;100806.33;2387708;73;50953;-72
2022/11/05 08:07:47;;;;;;;;;;;;;;;18.70;67.54;100815.86;2416094;73;51469;-72
2022/11/05 08:10:49;;;;;;;;;;;;;;;18.70;67.45;100819.02;2416047;73;51366;-72
2022/11/05 08:13:51;;;;;;;;;;;;;;;18.70;67.37;100832.42;2413774;72;51494;-74
2022/11/05 08:16:52;;;;;;;;;;;;;;;18.69;67.35;100840.15;2356563;72;52875;-73
2022/11/05 08:19:54;;;;;;;;;;;;;;;18.66;67.33;100838.66;2432611;72;51469;-72
2022/11/05 08:22:55;;;;;;;;;;;;;;;18.63;67.38;100840.87;2423738;72;51494;-72
2022/11/05 08:25:57;;;;;;;;;;;;;;;18.55;67.57;100850.28;2399644;73;51544;-72
2022/11/05 08:28:59;;;;;;;;;;;;;;;18.49;66.84;100845.97;2372632;73;50893;-73
2022/11/05 08:32:00;;;;;;;;;;;;;;;18.57;65.65;100863.01;2400213;73;51444;-73
2022/11/05 08:35:02;;;;;;;;;;;;;;;18.62;65.85;100861.97;2399976;73;51356;-72
2022/11/05 08:38:04;;;;;;;;;;;;;;;18.64;65.87;100862.12;2399889;73;51687;-72
2022/11/05 08:41:06;;;;;;;;;;;;;;;18.65;65.85;100870.98;2372606;73;50806;-73
2022/11/05 08:44:08;;;;;;;;;;;;;;;18.64;65.88;100867.99;2393145;73;50737;-73
2022/11/05 08:47:09;;;;;;;;;;;;;;;18.64;65.91;100874.70;2400159;73;51399;-73
2022/11/05 08:50:11;;;;;;;;;;;;;;;18.63;65.95;100865.00;2400229;73;53574;-73
2022/11/05 08:53:12;;;;;;;;;;;;;;;18.60;66.00;100871.55;2400186;73;52342;-73
2022/11/05 08:56:14;;;;;;;;;;;;;;;18.56;66.18;100874.23;2436700;73;51446;-73
2022/11/05 08:59:15;;;;;;;;;;;;;;;18.56;66.29;100878.27;2448168;72;51574;-73
2022/11/05 09:02:17;;;;;;;;;;;;;;;18.60;66.32;100887.63;2444044;72;51496;-73
2022/11/05 09:05:19;;;;;;;;;;;;;;;18.65;66.42;100884.39;2424504;73;51588;-72
2022/11/05 09:08:20;;;;;;;;;;;;;;;18.72;66.00;100880.82;2388282;73;50098;-74
2022/11/05 09:11:22;;;;;;;;;;;;;;;18.75;65.53;100881.48;2388936;73;51534;-72
2022/11/05 09:14:25;;;;;;;;;;;;;;;18.76;65.55;100890.73;2398391;73;50332;-72
2022/11/05 09:17:27;;;;;;;;;;;;;;;18.76;65.50;100906.81;2371331;75;22224;-73
2022/11/05 09:20:28;;;;;;;;;;;;;;;18.76;65.55;100904.65;2376874;75;51552;-73
2022/11/05 09:23:30;;;;;;;;;;;;;;;18.77;65.73;100904.45;2377131;75;50792;-72
2022/11/05 09:26:31;;;;;;;;;;;;;;;18.79;65.96;100904.28;2378647;73;51457;-74
2022/11/05 09:29:33;;;;;;;;;;;;;;;18.73;66.08;100907.14;2393060;73;52748;-73
2022/11/05 09:32:35;;;;;;;;;;;;;;;18.72;66.12;100910.81;2394151;73;51456;-73
2022/11/05 09:35:39;;;;;;;;;;;;;;;18.70;66.22;100910.16;2405674;73;51500;-74
2022/11/05 09:38:41;;;;;;;;;;;;;;;18.72;66.08;100913.50;2413538;73;50269;-73
2022/11/05 09:41:43;;;;;;;;;;;;;;;18.73;66.01;100920.55;2351215;73;51295;-74
2022/11/05 09:44:52;;;;;;;;;;;;;;;18.74;65.99;100922.72;2411371;73;51570;-74
2022/11/05 09:47:58;;;;;;;;;;;;;;;18.72;65.97;100934.43;2411759;73;50764;-72
2022/11/05 09:51:00;;;;;;;;;;;;;;;18.71;65.97;100925.25;2412899;73;50391;-72
2022/11/05 09:54:02;;;;;;;;;;;;;;;18.69;65.92;100929.43;2386365;73;50054;-75
2022/11/05 09:57:04;;;;;;;;;;;;;;;18.68;65.96;100933.65;2413103;73;51575;-72
2022/11/05 10:00:07;;;;;;;;;;;;;;;18.67;66.00;100944.02;2413013;73;50396;-73
2022/11/05 10:03:12;;;;;;;;;;;;;;;18.63;66.05;100934.68;2412721;73;51686;-73
2022/11/05 10:06:15;;;;;;;;;;;;;;;18.58;66.24;100936.55;2386893;73;49426;-73
2022/11/05 10:09:19;;;;;;;;;;;;;;;18.61;66.18;100935.36;2412513;73;50942;-73
2022/11/05 10:12:28;;;;;;;;;;;;;;;18.66;66.08;100943.70;2400047;73;50229;-73
2022/11/05 10:15:34;;;;;;;;;;;;;;;18.69;65.93;100945.52;2391309;74;50770;-73
2022/11/05 10:18:36;;;;;;;;;;;;;;;18.70;65.88;100945.86;2367100;74;52901;-74
2022/11/05 10:21:38;;;;;;;;;;;;;;;18.69;65.87;100942.00;2391829;74;51566;-74
2022/11/05 10:24:41;;;;;;;;;;;;;;;18.67;65.89;100945.36;2391626;74;50718;-74
2022/11/05 10:27:44;;;;;;;;;;;;;;;18.68;65.87;100953.75;2390489;74;50425;-74
2022/11/05 10:30:46;;;;;;;;;;;;;;;18.66;65.90;100960.61;2363810;74;51277;-74
2022/11/05 10:33:49;;;;;;;;;;;;;;;18.65;65.91;100959.44;2364596;74;52613;-74
2022/11/05 10:36:53;;;;;;;;;;;;;;;18.58;66.08;100959.83;2387483;74;51523;-74
2022/11/05 10:39:54;;;;;;;;;;;;;;;18.58;66.15;100963.85;2389422;73;50452;-73
2022/11/05 10:43:04;;;;;;;;;;;;;;;18.62;66.08;100961.13;2390657;73;50312;-73
2022/11/05 10:46:07;;;;;;;;;;;;;;;18.67;65.92;100966.80;2412662;73;51532;-74
2022/11/05 10:49:10;;;;;;;;;;;;;;;18.68;65.86;100964.47;2412679;73;50570;-74
2022/11/05 10:52:13;;;;;;;;;;;;;;;18.68;65.84;100976.02;2413169;73;50092;-75
2022/11/05 10:55:22;;;;;;;;;;;;;;;18.69;65.82;100980.87;2377553;73;51302;-74
2022/11/05 10:58:29;;;;;;;;;;;;;;;18.67;65.80;100982.88;2413346;73;50880;-75
2022/11/05 11:01:30;;;;;;;;;;;;;;;18.67;65.81;100988.25;2412893;73;51493;-74
2022/11/05 11:04:32;;;;;;;;;;;;;;;18.65;65.83;100979.54;2412897;73;50525;-74
2022/11/05 11:07:35;;;;;;;;;;;;;;;18.62;65.89;100991.44;2386831;73;50100;-74
2022/11/05 11:10:52;;;;;;;;;;;;;;;18.57;66.04;100983.60;2408265;73;50461;-74
2022/11/05 11:13:55;;;;;;;;;;;;;;;18.58;66.07;100976.73;2413083;73;50667;-75
2022/11/05 11:16:58;;;;;;;;;;;;;;;18.64;65.91;100981.90;2412268;73;50686;-74
2022/11/05 11:20:17;;;;;;;;;;;;;;;18.67;65.79;100978.86;2386769;73;51895;-75
2022/11/05 11:23:19;;;;;;;;;;;;;;;18.68;65.73;100977.88;2416266;73;50291;-74
2022/11/05 11:26:20;;;;;;;;;;;;;;;18.67;65.73;100974.84;2391115;73;51537;-74
2022/11/05 11:29:24;;;;;;;;;;;;;;;18.66;65.71;100974.02;2417045;73;50225;-75
2022/11/05 11:32:27;;;;;;;;;;;;;;;18.66;65.73;100969.16;2417034;73;50734;-74
2022/11/05 11:35:29;;;;;;;;;;;;;;;18.65;65.71;100975.52;2416793;73;50706;-75
2022/11/05 11:38:31;;;;;;;;;;;;;;;18.63;65.78;100976.22;2416884;73;50332;-74
2022/11/05 11:41:33;;;;;;;;;;;;;;;18.57;65.92;100984.95;2407981;73;50696;-74
2022/11/05 11:44:36;;;;;;;;;;;;;;;18.57;65.99;100979.58;2390226;73;50137;-74
2022/11/05 11:47:37;;;;;;;;;;;;;;;18.62;65.88;100982.58;2416730;73;50636;-75
2022/11/05 11:50:43;;;;;;;;;;;;;;;18.67;65.72;100986.39;2390974;73;50545;-71
2022/11/05 11:53:46;;;;;;;;;;;;;;;18.69;65.65;100983.55;2416600;73;51613;-73
2022/11/05 11:56:47;;;;;;;;;;;;;;;18.67;65.63;100981.03;2390726;73;49570;-73
2022/11/05 11:59:49;;;;;;;;;;;;;;;18.65;65.66;100988.44;2381200;73;51099;-73
2022/11/05 12:03:10;;;;;;;;;;;;;;;18.64;65.67;100985.92;2416832;73;50726;-74
2022/11/05 12:06:17;;;;;;;;;;;;;;;18.63;65.70;100989.11;2416284;73;50435;-74
2022/11/05 12:09:35;;;;;;;;;;;;;;;18.63;65.69;100997.66;2415409;73;50458;-73
2022/11/05 12:12:39;;;;;;;;;;;;;;;18.57;65.84;100997.00;2400603;73;50437;-74
2022/11/05 12:15:51;;;;;;;;;;;;;;;18.54;65.96;100990.15;2405654;74;50376;-74
2022/11/05 12:18:54;;;;;;;;;;;;;;;18.57;65.91;100990.30;2406389;74;51729;-74
2022/11/05 12:21:57;;;;;;;;;;;;;;;18.64;65.78;100991.28;2406349;74;50170;-74
2022/11/05 12:25:00;;;;;;;;;;;;;;;18.67;65.62;100986.39;2403286;73;50405;-74
2022/11/05 12:28:20;;;;;;;;;;;;;;;18.68;65.55;100985.91;2405116;74;50856;-73
2022/11/05 12:31:23;;;;;;;;;;;;;;;18.67;65.56;100990.41;2406369;74;50829;-74
2022/11/05 12:34:29;;;;;;;;;;;;;;;18.65;65.54;100995.63;2379777;73;49719;-74
2022/11/05 12:37:38;;;;;;;;;;;;;;;18.64;65.56;100989.43;2406086;74;51588;-74
2022/11/05 12:40:54;;;;;;;;;;;;;;;18.64;65.54;100987.27;2394150;73;51803;-75
2022/11/05 12:44:15;;;;;;;;;;;;;;;18.62;65.59;100993.30;2374672;73;50452;-74
2022/11/05 12:47:35;;;;;;;;;;;;;;;18.56;65.77;100985.45;2318876;74;50324;-74
2022/11/05 12:50:38;;;;;;;;;;;;;;;18.58;65.78;100983.95;2383576;74;50371;-73
2022/11/05 12:53:58;;;;;;;;;;;;;;;18.63;65.67;100992.30;2368329;74;50508;-74
2022/11/05 12:57:02;;;;;;;;;;;;;;;18.64;65.56;100985.41;2368832;75;50324;-74
2022/11/05 13:00:08;;;;;;;;;;;;;;;18.66;65.51;100989.27;2340681;75;49698;-74
2022/11/05 13:03:24;;;;;;;;;;;;;;;18.65;65.48;100991.60;2368759;74;50804;-74
2022/11/05 13:06:34;;;;;;;;;;;;;;;18.65;65.49;100988.92;2368712;74;51672;-74
2022/11/05 13:09:37;;;;;;;;;;;;;;;18.62;65.56;100990.11;2368686;75;50459;-74
2022/11/05 13:12:39;;;;;;;;;;;;;;;18.60;65.57;100995.31;2374323;73;49669;-74
2022/11/05 13:15:42;;;;;;;;;;;;;;;18.57;65.65;100996.49;2405837;74;51564;-74
2022/11/05 13:18:45;;;;;;;;;;;;;;;18.50;65.83;100996.37;2405321;74;51574;-74
2022/11/05 13:21:49;;;;;;;;;;;;;;;18.53;65.82;100989.00;2405144;73;50765;-74
2022/11/05 13:24:55;;;;;;;;;;;;;;;18.61;65.67;101005.03;2380359;74;50212;-74
2022/11/05 13:28:07;;;;;;;;;;;;;;;18.64;65.52;100996.64;2405851;74;50426;-74
2022/11/05 13:31:10;;;;;;;;;;;;;;;18.66;65.44;100998.14;2405481;73;51702;-74
2022/11/05 13:34:12;;;;;;;;;;;;;;;18.66;65.39;101005.34;2405998;74;50462;-74
2022/11/05 13:40:34;;;;;;;;;;;;;;;18.64;65.41;101012.22;2406292;73;25385;-74
2022/11/05 13:43:40;;;;;;;;;;;;;;;18.62;65.46;101024.12;2410784;73;51022;-74
2022/11/05 13:46:44;;;;;;;;;;;;;;;18.62;65.45;101033.50;2410755;74;51620;-73
2022/11/05 13:49:53;;;;;;;;;;;;;;;18.56;65.59;101024.83;2382333;73;52771;-74
2022/11/05 13:52:56;;;;;;;;;;;;;;;18.56;65.69;101026.99;2411076;73;50557;-73
2022/11/05 13:56:14;;;;;;;;;;;;;;;18.59;65.59;101033.34;2411383;73;50476;-74
2022/11/05 13:59:33;;;;;;;;;;;;;;;18.62;65.48;101033.50;2410762;73;51490;-73
2022/11/05 14:02:36;;;;;;;;;;;;;;;18.65;65.39;101029.13;2411090;73;50816;-73
2022/11/05 14:05:39;;;;;;;;;;;;;;;18.63;65.37;101029.31;2411206;74;51562;-74
2022/11/05 14:08:42;;;;;;;;;;;;;;;18.63;65.37;101035.19;2411095;74;50771;-73
2022/11/05 14:11:45;;;;;;;;;;;;;;;18.62;65.38;101030.81;2409134;73;50686;-74
2022/11/05 14:14:48;;;;;;;;;;;;;;;18.60;65.39;101044.41;2371296;74;51902;-73
2022/11/05 14:18:00;;;;;;;;;;;;;;;18.58;65.45;101042.91;2395324;74;50497;-74
2022/11/05 14:21:02;;;;;;;;;;;;;;;18.52;65.59;101036.89;2394973;74;50808;-73
2022/11/05 14:24:20;;;;;;;;;;;;;;;18.49;65.71;101031.37;2395281;74;50426;-74
2022/11/05 14:27:24;;;;;;;;;;;;;;;18.52;65.70;101036.89;2369243;74;50002;-74
2022/11/05 14:30:44;;;;;;;;;;;;;;;18.58;65.54;101037.55;2395299;74;50790;-74
2022/11/05 14:33:47;;;;;;;;;;;;;;;18.60;65.42;101040.87;2395224;74;50670;-74
2022/11/05 14:37:02;;;;;;;;;;;;;;;18.61;65.39;101041.22;2375574;74;51728;-74
2022/11/05 14:40:20;;;;;;;;;;;;;;;18.59;65.36;101037.36;2347016;74;49665;-74
2022/11/05 14:43:23;;;;;;;;;;;;;;;18.58;65.38;101040.23;2377058;74;51570;-74
2022/11/05 14:46:24;;;;;;;;;;;;;;;18.56;65.40;101044.92;2394956;74;51555;-74
2022/11/05 14:49:27;;;;;;;;;;;;;;;18.53;65.45;101045.28;2395115;74;50137;-74
2022/11/05 14:52:29;;;;;;;;;;;;;;;18.47;65.62;101055.67;2369182;74;51095;-74
2022/11/05 14:55:34;;;;;;;;;;;;;;;18.45;65.73;101061.70;2395040;73;51535;-74
2022/11/05 14:58:37;;;;;;;;;;;;;;;18.47;65.68;101062.85;2395138;74;50517;-74
2022/11/05 15:01:43;;;;;;;;;;;;;;;18.53;65.54;101063.52;2395130;74;52073;-73
2022/11/05 15:04:46;;;;;;;;;;;;;;;18.58;65.38;101065.69;2368822;74;51863;-74
2022/11/05 15:07:49;;;;;;;;;;;;;;;18.59;65.30;101066.84;2395142;74;50670;-73
2022/11/05 15:10:50;;;;;;;;;;;;;;;18.59;65.27;101066.02;2379176;74;50788;-74
2022/11/05 15:13:56;;;;;;;;;;;;;;;18.59;65.23;101064.67;2357510;74;51516;-74
2022/11/05 15:17:00;;;;;;;;;;;;;;;18.57;65.28;101071.53;2345013;75;50996;-74
2022/11/05 15:20:06;;;;;;;;;;;;;;;18.56;65.25;101067.70;2368113;75;51570;-75
2022/11/05 15:23:09;;;;;;;;;;;;;;;18.55;65.25;101073.58;2371972;75;51580;-74
2022/11/05 15:26:31;;;;;;;;;;;;;;;18.47;65.43;101069.08;2371829;75;51537;-75
2022/11/05 15:29:32;;;;;;;;;;;;;;;18.45;65.65;101073.77;2363366;74;51666;-74
2022/11/05 15:32:34;;;;;;;;;;;;;;;18.48;65.62;101072.08;2412066;73;51383;-74
2022/11/05 15:35:40;;;;;;;;;;;;;;;18.60;65.25;101068.53;2425968;73;51508;-74
2022/11/05 15:38:41;;;;;;;;;;;;;;;18.64;65.11;101075.71;2436324;73;52353;-74
2022/11/05 15:41:44;;;;;;;;;;;;;;;18.67;65.00;101078.87;2421850;73;50288;-74
2022/11/05 15:44:47;;;;;;;;;;;;;;;18.75;64.71;101079.85;2412355;73;50713;-73
2022/11/05 15:47:49;;;;;;;;;;;;;;;18.67;64.89;101085.56;2418221;73;51541;-74
2022/11/05 15:50:50;;;;;;;;;;;;;;;18.65;64.97;101078.71;2376688;73;52233;-74
2022/11/05 15:53:54;;;;;;;;;;;;;;;18.65;64.98;101090.77;2386385;73;51792;-73
2022/11/05 15:56:56;;;;;;;;;;;;;;;18.57;65.16;101084.10;2426611;72;52345;-73
2022/11/05 15:59:58;;;;;;;;;;;;;;;18.62;65.01;101091.13;2425285;73;51546;-75
2022/11/05 16:03:01;;;;;;;;;;;;;;;18.57;65.26;101084.10;2412453;73;50388;-73
2022/11/05 16:06:03;;;;;;;;;;;;;;;18.61;65.18;101089.46;2385461;73;52667;-75
2022/11/05 16:09:04;;;;;;;;;;;;;;;18.65;65.04;101083.59;2385965;73;51422;-74
2022/11/05 16:12:20;;;;;;;;;;;;;;;18.74;64.81;101087.58;2412797;73;50377;-74
2022/11/05 16:15:22;;;;;;;;;;;;;;;18.74;64.76;101083.05;2412227;73;50448;-74
2022/11/05 16:18:25;;;;;;;;;;;;;;;18.76;64.67;101088.28;2386398;73;51037;-74
2022/11/05 16:21:27;;;;;;;;;;;;;;;18.75;64.69;101092.78;2412207;73;50302;-72
2022/11/05 16:24:28;;;;;;;;;;;;;;;18.77;64.64;101086.74;2412256;73;50384;-75
2022/11/05 16:27:30;;;;;;;;;;;;;;;18.69;64.76;101088.09;2411622;73;50381;-74
2022/11/05 16:30:31;;;;;;;;;;;;;;;18.71;64.75;101096.80;2385854;73;50068;-72
2022/11/05 16:33:34;;;;;;;;;;;;;;;18.70;64.85;101089.75;2411607;73;51485;-73
2022/11/05 16:36:36;;;;;;;;;;;;;;;18.74;64.76;101091.09;2412387;73;51517;-72
2022/11/05 16:39:38;;;;;;;;;;;;;;;18.79;64.66;101096.80;2412198;73;50200;-73
2022/11/05 16:42:39;;;;;;;;;;;;;;;18.80;64.58;101095.77;2369098;73;49552;-73